Olympic National Park, WA

7:55 AM PST on February 06, 2016 (GMT -0800)
Lake Dawn | | Change Station
CLOSE
Current Station
Personal Weather Station
Location: Port Angeles, WA
Elevation: 1864 ft
Nearby Weather Stations

Elev 1864 ft 48.04 °N, 123.43 °W | Updated 10 minutes ago

Overcast
Overcast
34.2 °F
Feels Like 34 °F
N
1.6
Wind Variable Wind from NW
Gusts 1.6 mph

Today
High -- | Low -- °F
--% Chance of Precip.
Yesterday
High -- | Low -- °F
Precip. -- in
Pressure 30.39 in
Visibility 10.0 miles
Clouds Few 5500 ft
Scattered Clouds 7000 ft
Mostly Cloudy 9000 ft
Windchill 34 °F
Dew Point 34 °F
Humidity 99%
Rainfall 0.07 in
Snow Depth Not available.
7:35 AM 5:21 PM
Waning Crescent, 5% visible
METAR KCLM 061453Z AUTO 21003KT 10SM FEW055 SCT070 BKN090 05/02 A3038 RMK AO2 SLP289 60000 T00500022 51029
Pressure 30.39 in
Visibility 10.0 miles
Clouds Few 5500 ft
Scattered Clouds 7000 ft
Mostly Cloudy 9000 ft
Windchill 34 °F
Dew Point 34 °F
Humidity 99%
Rainfall 0.07 in
Snow Depth Not available.
7:35 AM 5:21 PM
Waning Crescent, 5% visible
METAR KCLM 061453Z AUTO 21003KT 10SM FEW055 SCT070 BKN090 05/02 A3038 RMK AO2 SLP289 60000 T00500022 51029

10-Day Weather Forecast

Almanac

Astronomy

Feb. 06, 2016 Rise Set
Actual Time
Civil Twilight
Nautical Twilight
Astronomical Twilight
Moon
Length of Visible Light
Length of Day
Tomorrow will be .
, % of the Moon is Illuminated

Today's Extremes

State Highs State Lows

Community

WunderPhotos

Upload Photos

1,890,987 photos uploaded!

WunderBlog® & News

Nearby

Air Quality

  Air Quality AQ Index Pollutant
Not available.

Snow Depth

Station Depth Elevation

Earthquake Activity

City Distance Mag. Time & Date
Minimum magnitude displayed is 2.5.

Coastal Water Temperatures

Place Temperature

Stations

Nearby Weather Stations

Station Location Temp. Windchill Dew Point Humidity Wind Precip. Elev Updated Type
                   

Watches & Warnings

There are currently no watches in effect.